Tunis, Tunisia
Current Conditions -  °F | °C
As of 3:00 AM on Monday 22 Dec 2014 (Local Time) from DTTA Reporting Station
Scattered Clouds Scattered Clouds  
Wind Chill: 55°   Ceiling: Unl
Heat Index: 55°   Visibility: 6mi
Dew Point: 45°   Wind: 3mph
Humidity: 67%   Direction: 260°W
Pressure: 30.45"   Gusts: NA
Location:  36.84°N, 10.22°E
Report Text: DTTA 220200Z 26003KT 9999 SCT026 13/07 Q1031 NOSIG
Loading
Personal Weather Stations






























Interactive Weather Map New forecast layout! Learn more

10-Day Weather Forecast

Advertisements
Track Severe Weather on mobile